Time;durP1;ratioP1;P1;durP2;ratioP2;P2;SDS_P1;SDS_P2;PMS_P1;PMS_P2;Temp;Humidity;BMP_temperature;BMP_pressure;BME280_temperature;BME280_humidity;BME280_pressure;Samples;Min_cycle;Max_cycle;Signal;HPM_P1;HPM_P2
2023/03/30 00:01:20;;;;;;;9.37;7.30;;;11.80;99.90;;;;;;5032869;28;20189;-63
2023/03/30 00:03:48;;;;;;;6.97;6.47;;;11.80;99.90;;;;;;5019471;28;20300;-63
2023/03/30 00:06:21;;;;;;;6.23;5.83;;;11.80;99.90;;;;;;5050303;28;20175;-63
2023/03/30 00:08:48;;;;;;;6.53;6.13;;;11.70;99.90;;;;;;5035640;28;20183;-63
2023/03/30 00:11:16;;;;;;;7.07;6.47;;;11.70;99.90;;;;;;5051978;28;20664;-63
2023/03/30 00:13:43;;;;;;;9.13;6.80;;;11.80;99.90;;;;;;5052722;28;20181;-63
2023/03/30 00:16:11;;;;;;;6.13;5.50;;;11.80;99.90;;;;;;5052914;28;20564;-63
2023/03/30 00:18:38;;;;;;;6.03;5.53;;;11.80;99.90;;;;;;5052536;28;20179;-63
2023/03/30 00:21:05;;;;;;;5.27;5.00;;;11.80;99.90;;;;;;5012800;28;20279;-63
2023/03/30 00:23:31;;;;;;;9.00;5.13;;;11.80;99.90;;;;;;5013048;28;20172;-63
2023/03/30 00:25:56;;;;;;;6.57;6.23;;;11.80;99.90;;;;;;5050359;28;20185;-63
2023/03/30 00:28:23;;;;;;;6.30;5.90;;;11.80;99.90;;;;;;5052834;28;20529;-63
2023/03/30 00:30:51;;;;;;;6.13;5.73;;;11.80;99.90;;;;;;5034797;28;20321;-63
2023/03/30 00:33:17;;;;;;;5.60;4.83;;;11.90;99.90;;;;;;5032785;28;20171;-63
2023/03/30 00:35:42;;;;;;;5.00;4.70;;;11.80;99.90;;;;;;5032292;28;20585;-63
2023/03/30 00:38:08;;;;;;;5.10;4.80;;;11.80;99.90;;;;;;5032049;28;20168;-63
2023/03/30 00:40:34;;;;;;;5.47;4.87;;;11.80;99.90;;;;;;5045279;28;20213;-63
2023/03/30 00:43:02;;;;;;;5.70;5.20;;;11.80;99.90;;;;;;5051547;28;20672;-63
2023/03/30 00:45:29;;;;;;;6.20;5.80;;;11.90;99.90;;;;;;5037635;28;20211;-63
2023/03/30 00:48:10;;;;;;;5.10;4.80;;;11.90;99.90;;;;;;5031898;28;20625;-64
2023/03/30 00:50:44;;;;;;;7.60;4.40;;;11.90;99.90;;;;;;5045258;28;20190;-64
2023/03/30 00:53:32;;;;;;;4.80;4.40;;;12.00;99.90;;;;;;5046951;28;20167;-64
2023/03/30 00:55:59;;;;;;;5.67;5.20;;;12.00;99.90;;;;;;5031838;28;20195;-64
2023/03/30 00:58:26;;;;;;;11.03;4.73;;;12.00;99.90;;;;;;5037978;28;20178;-64
2023/03/30 01:00:52;;;;;;;4.73;4.30;;;11.90;99.90;;;;;;5051130;28;20199;-64
2023/03/30 01:03:26;;;;;;;6.07;5.67;;;11.90;99.90;;;;;;5047013;28;20180;-64
2023/03/30 01:05:54;;;;;;;4.30;4.10;;;11.80;99.90;;;;;;5032086;28;20170;-63
2023/03/30 01:08:22;;;;;;;5.03;4.63;;;11.80;99.90;;;;;;5035904;28;20178;-63
2023/03/30 01:10:50;;;;;;;5.00;4.70;;;11.90;99.90;;;;;;5051600;28;20183;-63
2023/03/30 01:13:16;;;;;;;5.83;4.67;;;11.90;99.90;;;;;;5048732;28;20182;-64
2023/03/30 01:16:00;;;;;;;4.87;4.57;;;12.00;99.90;;;;;;5031930;28;20550;-64
2023/03/30 01:18:43;;;;;;;5.93;5.53;;;12.10;99.90;;;;;;5032849;28;20178;-64
2023/03/30 01:21:49;;;;;;;9.10;8.40;;;12.30;99.90;;;;;;5031518;28;20570;-64
2023/03/30 01:24:57;;;;;;;6.50;6.20;;;12.40;99.90;;;;;;5041346;28;20210;-64
2023/03/30 01:27:32;;;;;;;6.63;6.33;;;12.60;99.90;;;;;;5051660;28;20162;-64
2023/03/30 01:30:40;;;;;;;6.23;5.93;;;12.60;99.90;;;;;;5035919;28;20198;-66
2023/03/30 01:34:00;;;;;;;5.43;5.03;;;12.80;99.90;;;;;;5031831;28;20171;-63
2023/03/30 01:37:05;;;;;;;4.87;4.57;;;12.80;99.90;;;;;;4932080;29;20198;-64
2023/03/30 01:39:43;;;;;;;4.43;4.23;;;12.90;99.90;;;;;;5013376;28;20210;-63
2023/03/30 01:42:18;;;;;;;4.90;4.40;;;13.00;99.90;;;;;;5051465;28;20630;-63
2023/03/30 01:44:57;;;;;;;5.17;4.73;;;13.10;99.90;;;;;;5049525;28;20241;-63
2023/03/30 01:47:39;;;;;;;3.90;3.67;;;13.10;99.90;;;;;;5051534;28;20170;-63
2023/03/30 01:50:10;;;;;;;4.10;3.83;;;13.20;99.90;;;;;;5041138;28;20191;-63
2023/03/30 01:52:52;;;;;;;4.10;3.90;;;13.20;99.90;;;;;;5031362;28;20175;-63
2023/03/30 01:55:34;;;;;;;6.53;3.83;;;13.20;99.90;;;;;;5031422;28;20175;-63
2023/03/30 01:58:07;;;;;;;3.83;3.60;;;13.30;99.90;;;;;;5031351;28;20559;-63
2023/03/30 02:00:35;;;;;;;4.00;3.80;;;13.30;99.90;;;;;;5045841;28;20194;-63
2023/03/30 02:03:10;;;;;;;4.87;4.00;;;13.30;99.90;;;;;;5051217;28;20177;-63
2023/03/30 02:05:36;;;;;;;4.20;4.00;;;13.30;99.90;;;;;;5035928;28;20349;-64
2023/03/30 02:08:08;;;;;;;4.33;3.90;;;13.30;99.90;;;;;;5037122;28;20625;-64
2023/03/30 02:10:34;;;;;;;4.40;4.10;;;13.30;99.90;;;;;;5050716;28;20277;-63
2023/03/30 02:13:01;;;;;;;5.37;4.03;;;13.40;99.90;;;;;;5038159;28;20182;-63
2023/03/30 02:15:32;;;;;;;4.53;4.23;;;13.50;99.90;;;;;;5030908;28;20175;-63
2023/03/30 02:17:58;;;;;;;4.20;4.00;;;13.70;99.90;;;;;;5042943;28;20175;-65
2023/03/30 02:20:23;;;;;;;4.43;4.13;;;13.80;99.90;;;;;;5050614;28;20201;-62
2023/03/30 02:22:49;;;;;;;4.53;4.33;;;14.10;99.90;;;;;;5040968;28;20183;-62
2023/03/30 02:25:16;;;;;;;4.37;4.13;;;14.30;99.90;;;;;;5031440;28;20280;-62
2023/03/30 02:27:41;;;;;;;4.40;4.00;;;14.50;99.90;;;;;;5039064;28;20171;-63
2023/03/30 02:30:08;;;;;;;5.83;3.87;;;14.60;99.90;;;;;;5050498;28;20213;-63
2023/03/30 02:32:48;;;;;;;4.10;3.80;;;14.70;99.90;;;;;;5043607;28;20186;-63
2023/03/30 02:35:31;;;;;;;4.37;3.97;;;14.70;99.90;;;;;;5034717;28;20176;-63
2023/03/30 02:38:16;;;;;;;4.30;4.00;;;14.80;99.90;;;;;;5043492;28;20178;-64
2023/03/30 02:41:03;;;;;;;5.10;4.70;;;14.80;99.90;;;;;;5054297;28;20236;-63
2023/03/30 02:43:48;;;;;;;3.80;3.60;;;14.80;99.90;;;;;;5041614;28;20179;-63
2023/03/30 02:46:44;;;;;;;4.57;4.30;;;14.80;99.90;;;;;;5034869;28;20723;-63
2023/03/30 02:49:16;;;;;;;5.10;4.70;;;14.70;99.90;;;;;;5052073;28;20197;-63
2023/03/30 02:51:47;;;;;;;4.30;4.10;;;14.70;99.90;;;;;;5054511;28;20735;-63
2023/03/30 02:54:28;;;;;;;4.63;4.30;;;14.60;99.90;;;;;;5036133;28;20554;-63
2023/03/30 02:57:04;;;;;;;4.47;4.17;;;14.60;99.90;;;;;;5034660;28;20684;-63
2023/03/30 02:59:33;;;;;;;4.70;4.40;;;14.50;99.90;;;;;;5053086;28;20193;-63
2023/03/30 03:02:26;;;;;;;4.67;4.00;;;14.40;99.90;;;;;;5054098;28;20201;-64
2023/03/30 03:04:53;;;;;;;4.47;4.27;;;14.30;99.90;;;;;;5054464;28;20337;-64
2023/03/30 03:07:20;;;;;;;7.07;3.80;;;14.20;99.90;;;;;;5054040;28;20202;-63
2023/03/30 03:09:45;;;;;;;5.00;4.70;;;14.20;99.90;;;;;;5034051;28;20191;-64
2023/03/30 03:12:11;;;;;;;3.87;3.67;;;14.00;99.90;;;;;;5034193;28;20163;-64
2023/03/30 03:14:38;;;;;;;4.10;3.77;;;14.00;99.90;;;;;;5051864;28;20671;-64
2023/03/30 03:17:04;;;;;;;4.00;3.80;;;13.90;99.90;;;;;;5054077;28;20641;-64
2023/03/30 03:19:30;;;;;;;4.30;4.00;;;13.80;99.90;;;;;;5037061;28;20306;-64
2023/03/30 03:21:56;;;;;;;4.40;4.00;;;13.90;99.90;;;;;;5034115;28;20175;-64
2023/03/30 03:24:22;;;;;;;4.93;3.70;;;13.80;99.90;;;;;;5048343;28;20190;-64
2023/03/30 03:26:47;;;;;;;4.63;4.23;;;13.80;99.90;;;;;;5053843;28;20652;-64
2023/03/30 03:29:13;;;;;;;11.30;4.03;;;13.60;99.90;;;;;;5040566;28;20258;-64
2023/03/30 03:31:39;;;;;;;4.20;3.90;;;13.60;99.90;;;;;;5033731;28;20175;-64
2023/03/30 03:34:04;;;;;;;6.13;4.40;;;13.40;99.90;;;;;;5044429;28;20182;-64
2023/03/30 03:36:31;;;;;;;4.10;3.90;;;13.30;99.90;;;;;;5053787;28;20171;-64
2023/03/30 03:38:57;;;;;;;4.43;4.23;;;13.20;99.90;;;;;;5044204;28;20336;-64
2023/03/30 03:41:22;;;;;;;4.10;3.90;;;13.00;99.90;;;;;;5033123;28;20426;-64
2023/03/30 03:43:48;;;;;;;4.97;4.67;;;12.90;99.90;;;;;;5022725;28;20198;-64
2023/03/30 03:46:15;;;;;;;5.97;4.50;;;12.80;99.90;;;;;;5052141;28;20254;-64
2023/03/30 03:48:40;;;;;;;8.37;4.23;;;12.80;99.90;;;;;;5047841;28;20180;-64
2023/03/30 03:51:07;;;;;;;3.97;3.77;;;12.70;99.90;;;;;;5033433;28;20191;-64
2023/03/30 03:53:32;;;;;;;4.67;4.37;;;12.60;99.90;;;;;;5036943;28;20182;-64
2023/03/30 03:55:58;;;;;;;9.33;4.53;;;12.50;99.90;;;;;;5053210;28;20170;-64
2023/03/30 03:58:25;;;;;;;4.80;4.40;;;12.50;99.90;;;;;;5051350;28;20213;-64
2023/03/30 04:00:51;;;;;;;4.33;4.03;;;12.50;99.90;;;;;;5032851;28;20192;-64
2023/03/30 04:03:17;;;;;;;4.40;4.00;;;12.30;99.90;;;;;;5033314;28;20704;-64
2023/03/30 04:05:43;;;;;;;5.10;4.70;;;12.30;99.90;;;;;;5013318;28;20207;-64
2023/03/30 04:08:09;;;;;;;5.40;5.07;;;12.30;99.90;;;;;;5037068;28;20225;-64
2023/03/30 04:10:40;;;;;;;4.90;4.60;;;12.40;99.90;;;;;;5052608;28;20203;-64
2023/03/30 04:13:06;;;;;;;4.83;4.53;;;12.40;99.90;;;;;;5042345;28;20229;-64
2023/03/30 04:15:32;;;;;;;4.60;4.40;;;12.60;99.90;;;;;;5032827;28;20652;-64
2023/03/30 04:17:58;;;;;;;20.80;11.67;;;12.60;99.90;;;;;;5049874;28;20183;-64
2023/03/30 04:20:25;;;;;;;9.27;8.33;;;12.70;99.90;;;;;;5052423;28;20220;-64
2023/03/30 04:22:52;;;;;;;6.50;5.90;;;12.70;99.90;;;;;;5051088;28;20198;-64
2023/03/30 04:25:24;;;;;;;5.87;5.47;;;12.70;99.90;;;;;;5052822;28;20253;-63
2023/03/30 04:27:51;;;;;;;6.33;5.73;;;12.70;99.90;;;;;;5034784;28;20187;-64
2023/03/30 04:30:18;;;;;;;5.17;4.87;;;12.60;99.90;;;;;;5032310;28;20191;-64
2023/03/30 04:32:45;;;;;;;5.47;5.07;;;12.50;99.90;;;;;;5048822;28;20317;-64
2023/03/30 04:35:13;;;;;;;5.57;5.17;;;12.50;99.90;;;;;;5052715;28;20198;-64
2023/03/30 04:37:40;;;;;;;5.87;4.90;;;12.50;99.90;;;;;;5036979;28;20187;-64
2023/03/30 04:40:11;;;;;;;5.83;4.53;;;12.60;99.90;;;;;;5032578;28;20251;-64
2023/03/30 04:42:38;;;;;;;5.50;4.90;;;12.60;99.90;;;;;;5046783;28;20240;-63
2023/03/30 04:45:06;;;;;;;9.53;4.40;;;12.80;99.90;;;;;;5023039;28;20214;-64
2023/03/30 04:47:32;;;;;;;4.73;4.40;;;13.00;99.90;;;;;;5032692;28;20703;-64
2023/03/30 04:49:58;;;;;;;4.77;4.10;;;13.10;99.90;;;;;;5041778;28;20191;-64
2023/03/30 04:52:24;;;;;;;4.47;4.17;;;13.20;99.90;;;;;;5052502;28;20171;-64
2023/03/30 04:54:50;;;;;;;5.90;5.10;;;13.30;99.90;;;;;;5043805;28;20325;-64
2023/03/30 04:57:16;;;;;;;4.00;3.80;;;13.50;99.90;;;;;;5031924;28;20198;-64
2023/03/30 04:59:43;;;;;;;4.70;4.40;;;13.50;99.90;;;;;;5038073;28;20229;-63
2023/03/30 05:02:10;;;;;;;6.43;4.37;;;13.60;99.90;;;;;;5051794;28;20178;-64
2023/03/30 05:04:36;;;;;;;4.47;4.07;;;13.70;99.90;;;;;;5046165;28;20217;-64
2023/03/30 05:07:02;;;;;;;4.80;4.30;;;13.80;99.90;;;;;;5032094;28;20967;-64
2023/03/30 05:09:28;;;;;;;4.63;4.23;;;13.80;99.90;;;;;;5032698;28;20175;-63
2023/03/30 05:11:53;;;;;;;4.20;4.00;;;13.80;99.90;;;;;;5031988;28;20515;-64
2023/03/30 05:14:19;;;;;;;4.60;4.40;;;13.80;99.90;;;;;;5033613;28;20636;-64
2023/03/30 05:16:45;;;;;;;4.70;4.40;;;13.90;99.90;;;;;;5052006;28;20220;-64
2023/03/30 05:19:11;;;;;;;5.47;4.97;;;13.90;99.90;;;;;;5051068;28;20266;-64
2023/03/30 05:21:36;;;;;;;4.70;4.23;;;13.90;99.90;;;;;;5032078;28;20258;-64
2023/03/30 05:24:02;;;;;;;7.23;5.00;;;13.90;99.90;;;;;;5031759;28;20673;-64
2023/03/30 05:26:28;;;;;;;5.13;4.83;;;13.90;99.90;;;;;;5050115;28;20210;-64
2023/03/30 05:28:53;;;;;;;4.77;4.40;;;13.90;99.90;;;;;;5051599;28;20261;-64
2023/03/30 05:31:19;;;;;;;6.33;4.50;;;13.90;99.90;;;;;;5034224;28;20207;-64
2023/03/30 05:33:45;;;;;;;4.90;4.60;;;13.90;99.90;;;;;;5031768;28;20587;-64
2023/03/30 05:36:11;;;;;;;5.37;4.87;;;13.90;99.90;;;;;;5032713;28;20190;-64
2023/03/30 05:38:37;;;;;;;4.40;4.00;;;14.00;99.90;;;;;;5031602;28;20186;-64
2023/03/30 05:41:06;;;;;;;4.70;4.50;;;14.00;99.90;;;;;;5044138;28;20288;-64
2023/03/30 05:43:35;;;;;;;4.57;4.27;;;14.00;99.90;;;;;;5033392;28;20528;-64
2023/03/30 05:46:01;;;;;;;5.33;4.90;;;14.00;99.90;;;;;;5038572;28;20518;-64
2023/03/30 05:48:28;;;;;;;5.37;4.73;;;14.10;99.90;;;;;;5031495;28;20313;-64
2023/03/30 05:50:54;;;;;;;4.93;4.63;;;14.10;99.90;;;;;;5038071;28;20198;-64
2023/03/30 05:53:19;;;;;;;5.57;4.70;;;14.10;99.90;;;;;;5036576;28;20660;-64
2023/03/30 05:55:46;;;;;;;4.73;4.53;;;14.20;99.90;;;;;;5031427;28;20254;-63
2023/03/30 05:58:13;;;;;;;5.13;4.80;;;14.20;99.90;;;;;;5031382;28;20637;-63
2023/03/30 06:00:40;;;;;;;5.53;5.03;;;14.30;99.90;;;;;;5031370;28;20857;-64
2023/03/30 06:03:07;;;;;;;5.40;4.90;;;14.30;99.90;;;;;;5034493;28;20190;-63
2023/03/30 06:05:38;;;;;;;5.03;4.53;;;14.40;99.90;;;;;;5043122;28;20688;-63
2023/03/30 06:08:04;;;;;;;4.20;4.00;;;14.50;99.90;;;;;;5051408;28;20206;-63
2023/03/30 06:10:30;;;;;;;5.50;4.03;;;14.60;99.90;;;;;;5051679;28;20196;-63
2023/03/30 06:12:56;;;;;;;4.60;3.77;;;14.60;99.90;;;;;;5033791;28;20183;-63
2023/03/30 06:15:21;;;;;;;4.57;4.27;;;14.70;99.90;;;;;;5036244;28;20175;-63
2023/03/30 06:17:48;;;;;;;7.47;4.43;;;14.80;99.90;;;;;;5055007;28;20175;-63
2023/03/30 06:20:13;;;;;;;4.57;4.20;;;14.80;99.90;;;;;;5054537;28;20199;-63
2023/03/30 06:22:43;;;;;;;4.70;4.40;;;14.80;99.90;;;;;;5035005;28;20210;-64
2023/03/30 06:25:09;;;;;;;3.87;3.67;;;14.80;99.90;;;;;;5035631;28;20230;-63
2023/03/30 06:27:36;;;;;;;4.50;4.20;;;14.80;99.90;;;;;;5054678;28;20170;-62
2023/03/30 06:30:02;;;;;;;4.60;4.30;;;14.80;99.90;;;;;;5055855;28;20236;-64
2023/03/30 06:32:28;;;;;;;4.33;3.93;;;14.80;99.90;;;;;;5037608;28;20178;-64
2023/03/30 06:34:53;;;;;;;4.77;4.40;;;14.80;99.90;;;;;;5035655;28;20171;-64
2023/03/30 06:37:20;;;;;;;4.43;4.20;;;14.80;99.90;;;;;;5051263;28;20193;-64
2023/03/30 06:39:45;;;;;;;5.60;4.20;;;14.80;99.90;;;;;;5053893;28;20321;-64
2023/03/30 06:42:11;;;;;;;5.30;4.90;;;14.90;99.90;;;;;;5038623;28;20573;-64
2023/03/30 06:44:38;;;;;;;7.63;3.87;;;15.00;99.90;;;;;;5033664;28;20199;-64
2023/03/30 06:47:04;;;;;;;3.93;3.73;;;15.10;99.90;;;;;;5047641;28;20171;-64
2023/03/30 06:49:31;;;;;;;4.47;4.10;;;15.20;99.90;;;;;;5054095;28;20205;-64
2023/03/30 06:51:56;;;;;;;4.40;3.97;;;15.20;99.90;;;;;;5052817;28;20247;-64
2023/03/30 06:54:23;;;;;;;5.90;4.10;;;15.20;99.90;;;;;;5054293;28;20202;-63
2023/03/30 06:56:49;;;;;;;5.77;4.20;;;15.30;99.90;;;;;;5052575;28;20174;-64
2023/03/30 06:59:15;;;;;;;9.60;4.30;;;15.40;99.90;;;;;;5054033;28;20170;-63
2023/03/30 07:01:41;;;;;;;8.00;5.03;;;15.60;99.90;;;;;;5045509;28;20184;-63
2023/03/30 07:04:07;;;;;;;4.80;4.20;;;15.70;99.90;;;;;;5033591;28;20256;-63
2023/03/30 07:06:33;;;;;;;4.43;4.23;;;15.80;99.90;;;;;;5048507;28;20179;-63
2023/03/30 07:08:59;;;;;;;4.60;4.30;;;15.90;99.90;;;;;;5051401;28;20168;-66
2023/03/30 07:11:25;;;;;;;4.60;4.30;;;15.90;99.90;;;;;;5034585;28;20556;-63
2023/03/30 07:13:50;;;;;;;5.07;4.73;;;15.90;99.90;;;;;;5034012;28;20255;-64
2023/03/30 07:16:16;;;;;;;4.67;3.80;;;16.00;99.90;;;;;;5033712;28;20667;-65
2023/03/30 07:18:42;;;;;;;5.60;4.30;;;16.00;99.90;;;;;;5034081;28;20179;-64
2023/03/30 07:21:08;;;;;;;3.90;3.70;;;16.10;99.90;;;;;;5032701;28;20234;-64
2023/03/30 07:23:33;;;;;;;4.10;3.80;;;16.10;99.90;;;;;;5016409;28;20255;-64
2023/03/30 07:25:59;;;;;;;5.03;4.53;;;16.10;99.90;;;;;;5033928;28;20182;-64
2023/03/30 07:28:25;;;;;;;4.47;4.07;;;16.10;99.90;;;;;;5033899;28;20192;-64
2023/03/30 07:30:51;;;;;;;10.30;4.03;;;16.00;99.90;;;;;;5014483;28;20199;-64
2023/03/30 07:33:18;;;;;;;4.07;3.73;;;16.00;99.90;;;;;;5033905;28;20487;-64
2023/03/30 07:35:44;;;;;;;6.23;4.10;;;16.00;99.90;;;;;;5036084;28;20175;-63
2023/03/30 07:38:11;;;;;;;4.13;3.87;;;16.00;99.90;;;;;;5024962;28;20237;-63
2023/03/30 07:40:37;;;;;;;4.20;3.90;;;16.00;99.90;;;;;;5037986;28;20207;-64
2023/03/30 07:43:02;;;;;;;11.63;3.83;;;15.90;99.90;;;;;;5035918;28;20252;-64
2023/03/30 07:45:28;;;;;;;4.70;4.30;;;15.90;99.90;;;;;;5051357;28;20199;-64
2023/03/30 07:47:54;;;;;;;4.23;3.87;;;16.00;99.90;;;;;;5051535;28;20232;-64
2023/03/30 07:50:20;;;;;;;4.47;4.17;;;16.00;99.90;;;;;;5049216;28;20207;-64
2023/03/30 07:52:46;;;;;;;5.30;4.43;;;16.10;99.90;;;;;;5032898;28;20172;-63
2023/03/30 07:55:11;;;;;;;4.67;4.37;;;16.30;99.90;;;;;;5042696;28;20718;-64
2023/03/30 07:57:37;;;;;;;5.30;4.90;;;16.50;99.90;;;;;;5052763;28;20557;-64
2023/03/30 08:00:09;;;;;;;5.47;5.13;;;16.60;99.90;;;;;;5045132;28;20223;-64
2023/03/30 08:02:35;;;;;;;4.90;4.60;;;16.70;99.90;;;;;;5035165;28;20218;-64
2023/03/30 08:05:01;;;;;;;4.30;3.90;;;16.70;99.90;;;;;;5033161;28;20560;-64
2023/03/30 08:07:27;;;;;;;4.17;3.93;;;16.80;99.90;;;;;;5032877;28;20182;-64
2023/03/30 08:09:53;;;;;;;5.83;5.43;;;16.80;99.90;;;;;;5029931;28;20192;-64
2023/03/30 08:12:19;;;;;;;4.03;3.73;;;16.60;99.90;;;;;;5032598;28;20180;-63
2023/03/30 08:14:45;;;;;;;4.00;3.70;;;16.50;99.90;;;;;;5032546;28;20186;-64
2023/03/30 08:17:11;;;;;;;6.53;4.83;;;16.40;99.90;;;;;;5033127;28;20182;-64
2023/03/30 08:19:37;;;;;;;4.07;3.77;;;16.20;99.90;;;;;;5014531;28;20577;-63
2023/03/30 08:22:02;;;;;;;4.20;3.90;;;15.70;99.90;;;;;;5033079;28;20172;-64
2023/03/30 08:24:28;;;;;;;4.60;4.30;;;15.40;99.90;;;;;;5032709;28;20200;-64
2023/03/30 08:26:54;;;;;;;7.63;3.60;;;15.20;99.90;;;;;;5032822;28;20205;-64
2023/03/30 08:29:20;;;;;;;4.70;3.70;;;15.00;99.90;;;;;;5032511;28;20195;-64
2023/03/30 08:31:46;;;;;;;6.37;3.97;;;14.70;99.90;;;;;;5031910;28;20596;-64
2023/03/30 08:34:11;;;;;;;10.13;4.40;;;14.50;99.90;;;;;;5032815;28;20172;-64
2023/03/30 08:36:37;;;;;;;4.03;3.83;;;14.40;99.90;;;;;;5032456;28;20182;-64
2023/03/30 08:39:05;;;;;;;5.67;4.63;;;14.40;99.90;;;;;;5035249;28;20181;-63
2023/03/30 08:41:57;;;;;;;4.60;4.40;;;14.70;99.90;;;;;;5043155;28;20210;-64
2023/03/30 08:44:52;;;;;;;4.77;4.10;;;15.00;99.90;;;;;;5046584;28;20293;-63
2023/03/30 08:47:27;;;;;;;6.60;4.47;;;15.10;99.90;;;;;;5047742;28;20194;-64
2023/03/30 08:50:13;;;;;;;5.70;3.93;;;15.30;99.90;;;;;;5033271;28;20291;-64
2023/03/30 08:52:40;;;;;;;5.63;4.60;;;15.40;99.90;;;;;;5038264;28;20270;-64
2023/03/30 08:55:43;;;;;;;6.63;4.30;;;15.50;99.90;;;;;;5050874;28;20178;-63
2023/03/30 08:58:20;;;;;;;5.00;4.00;;;15.70;99.90;;;;;;5034000;28;20195;-64
2023/03/30 09:00:55;;;;;;;5.43;3.87;;;15.70;99.90;;;;;;5033448;28;20591;-64
2023/03/30 09:03:33;;;;;;;5.20;4.80;;;16.20;99.90;;;;;;5050372;28;20274;-64
2023/03/30 09:06:26;;;;;;;3.97;3.60;;;16.80;99.90;;;;;;5052012;28;20205;-64
2023/03/30 09:08:52;;;;;;;3.93;3.73;;;17.90;99.90;;;;;;5003945;28;20182;-64
2023/03/30 09:11:37;;;;;;;2.97;2.87;;;18.50;99.90;;;;;;5051126;28;20199;-64
2023/03/30 09:14:06;;;;;;;5.67;5.17;;;18.30;99.90;;;;;;5040658;28;20548;-65
2023/03/30 09:16:41;;;;;;;4.93;4.53;;;17.70;99.90;;;;;;5031659;28;20182;-65
2023/03/30 09:19:15;;;;;;;4.00;3.70;;;16.40;99.90;;;;;;5031744;28;20171;-64
2023/03/30 09:21:41;;;;;;;4.47;4.23;;;15.00;99.90;;;;;;5031594;28;20175;-64
2023/03/30 09:24:21;;;;;;;5.37;4.53;;;14.30;99.90;;;;;;5032018;28;20681;-64
2023/03/30 09:26:58;;;;;;;4.33;4.13;;;14.00;99.90;;;;;;5032019;28;20663;-63
2023/03/30 09:29:38;;;;;;;4.83;4.47;;;13.70;99.90;;;;;;5031306;28;20221;-64
2023/03/30 09:32:13;;;;;;;4.90;4.07;;;13.60;99.90;;;;;;5031722;28;20186;-65
2023/03/30 09:34:52;;;;;;;8.97;8.47;;;13.20;99.90;;;;;;5025448;28;20198;-65
2023/03/30 09:37:20;;;;;;;10.73;9.87;;;12.60;99.90;;;;;;5032212;28;20186;-65
2023/03/30 09:39:46;;;;;;;7.27;6.87;;;11.90;99.90;;;;;;5030832;28;20215;-64
2023/03/30 09:42:42;;;;;;;7.30;6.90;;;11.50;99.90;;;;;;5031160;28;20171;-66
2023/03/30 09:45:21;;;;;;;8.43;6.80;;;11.20;99.90;;;;;;5013834;28;20608;-68
2023/03/30 09:47:46;;;;;;;8.10;7.40;;;11.00;99.90;;;;;;5029998;28;20175;-65
2023/03/30 09:50:18;;;;;;;5.63;5.27;;;10.90;99.90;;;;;;5032056;28;20195;-65
2023/03/30 09:52:57;;;;;;;7.23;6.53;;;10.80;99.90;;;;;;5031120;28;20266;-66
2023/03/30 09:55:28;;;;;;;6.97;6.37;;;10.80;99.90;;;;;;5043453;28;20484;-65
2023/03/30 09:58:19;;;;;;;5.30;5.00;;;10.70;99.90;;;;;;5011526;28;20516;-65
2023/03/30 10:00:59;;;;;;;5.73;5.43;;;10.70;99.90;;;;;;5011250;28;20335;-66
2023/03/30 10:03:26;;;;;;;5.77;5.47;;;10.70;99.90;;;;;;5011306;28;20255;-65
2023/03/30 10:06:02;;;;;;;10.43;5.00;;;10.80;99.90;;;;;;5037428;28;20250;-65
2023/03/30 10:08:28;;;;;;;5.80;5.37;;;10.90;99.90;;;;;;5030868;28;20684;-65
2023/03/30 10:10:56;;;;;;;4.90;4.50;;;10.80;99.90;;;;;;5048374;28;20679;-65
2023/03/30 10:13:51;;;;;;;5.27;4.97;;;10.90;99.90;;;;;;5051023;28;20186;-65
2023/03/30 10:16:28;;;;;;;4.90;4.40;;;11.00;99.90;;;;;;5010263;28;20240;-65
2023/03/30 10:18:58;;;;;;;4.77;4.47;;;11.10;99.90;;;;;;5050850;28;20175;-66
2023/03/30 10:21:29;;;;;;;5.20;4.80;;;11.40;99.90;;;;;;5011044;28;20219;-65
2023/03/30 10:24:02;;;;;;;5.37;4.87;;;11.70;99.90;;;;;;5011755;28;20179;-65
2023/03/30 10:26:29;;;;;;;4.40;4.10;;;11.90;99.90;;;;;;5011217;28;20311;-65
2023/03/30 10:29:04;;;;;;;9.80;4.73;;;12.10;99.90;;;;;;5011351;28;20168;-65
2023/03/30 10:31:33;;;;;;;4.90;4.70;;;12.30;99.90;;;;;;5010976;28;20661;-65
2023/03/30 10:34:01;;;;;;;4.10;3.90;;;12.60;99.90;;;;;;5011383;28;20182;-65
2023/03/30 10:36:33;;;;;;;4.30;4.00;;;13.00;99.90;;;;;;5049896;28;20182;-65
2023/03/30 10:39:30;;;;;;;5.77;5.27;;;13.50;99.90;;;;;;5051000;28;20175;-65
2023/03/30 10:41:59;;;;;;;7.87;4.50;;;13.70;99.90;;;;;;4991562;28;20198;-66
2023/03/30 10:44:30;;;;;;;4.87;4.67;;;13.70;99.90;;;;;;5032826;28;20194;-65
2023/03/30 10:47:25;;;;;;;4.90;4.60;;;13.90;99.90;;;;;;5050681;28;20688;-66
2023/03/30 10:50:14;;;;;;;5.50;5.10;;;14.10;99.90;;;;;;5010875;28;20197;-65
2023/03/30 10:53:09;;;;;;;5.80;5.37;;;14.30;99.90;;;;;;5021097;28;20254;-65
2023/03/30 10:56:05;;;;;;;5.17;4.40;;;14.40;99.90;;;;;;5042354;28;20228;-66
2023/03/30 10:58:37;;;;;;;4.17;3.97;;;14.80;99.90;;;;;;5024495;28;20183;-65
2023/03/30 11:01:25;;;;;;;6.40;3.97;;;15.10;99.90;;;;;;5034300;28;20234;-66
2023/03/30 11:03:59;;;;;;;4.80;4.47;;;15.50;99.90;;;;;;5048057;28;20179;-65
2023/03/30 11:06:30;;;;;;;6.00;4.60;;;15.70;99.90;;;;;;5054178;28;20170;-65
2023/03/30 11:09:00;;;;;;;4.97;4.60;;;15.90;99.90;;;;;;5039882;28;20183;-65
2023/03/30 11:11:35;;;;;;;4.17;3.97;;;15.90;99.90;;;;;;5033593;28;20203;-65
2023/03/30 11:14:06;;;;;;;5.97;4.00;;;15.90;99.90;;;;;;5034342;28;20625;-65
2023/03/30 11:16:51;;;;;;;5.33;4.10;;;15.90;99.90;;;;;;5033870;28;20202;-65
2023/03/30 11:19:42;;;;;;;6.30;4.30;;;15.70;99.90;;;;;;5049632;28;20518;-65
2023/03/30 11:22:34;;;;;;;4.63;4.23;;;15.50;99.90;;;;;;5054060;28;20575;-64
2023/03/30 11:25:04;;;;;;;5.10;4.57;;;15.40;99.90;;;;;;5014247;28;20206;-65
2023/03/30 11:27:46;;;;;;;4.00;3.80;;;15.30;99.90;;;;;;5014481;28;20222;-64
2023/03/30 11:30:25;;;;;;;6.20;4.17;;;15.40;99.90;;;;;;5019849;28;20202;-65
2023/03/30 11:33:10;;;;;;;3.53;3.23;;;15.80;99.90;;;;;;5051409;28;20187;-65
2023/03/30 11:35:47;;;;;;;3.73;3.43;;;16.50;99.90;;;;;;5031888;28;20645;-65
2023/03/30 11:38:15;;;;;;;4.30;3.90;;;16.60;99.90;;;;;;5034858;28;20183;-65
2023/03/30 11:40:45;;;;;;;3.90;3.70;;;17.00;99.90;;;;;;5032976;28;20214;-65
2023/03/30 11:43:16;;;;;;;3.73;3.43;;;17.20;99.90;;;;;;5019878;28;20225;-65
2023/03/30 11:46:07;;;;;;;3.73;3.53;;;16.90;99.90;;;;;;5053370;28;20229;-65
2023/03/30 11:48:45;;;;;;;4.80;3.10;;;17.00;99.90;;;;;;5047336;28;20179;-64
2023/03/30 11:51:37;;;;;;;5.00;4.60;;;16.90;99.90;;;;;;5053472;28;20688;-64
2023/03/30 11:54:32;;;;;;;6.07;4.60;;;17.10;99.90;;;;;;5038386;28;20179;-64
2023/03/30 11:57:06;;;;;;;5.53;4.20;;;17.10;99.90;;;;;;5034209;28;20262;-65
2023/03/30 11:59:55;;;;;;;5.27;3.77;;;16.90;99.90;;;;;;5052678;28;20198;-65
2023/03/30 12:03:00;;;;;;;7.07;4.47;;;17.00;99.90;;;;;;5049358;28;20176;-64
2023/03/30 12:05:32;;;;;;;5.20;4.63;;;17.30;99.90;;;;;;5025171;28;20214;-64
2023/03/30 12:08:34;;;;;;;4.50;4.10;;;17.70;99.90;;;;;;5052527;28;20177;-64
2023/03/30 12:11:28;;;;;;;5.17;4.77;;;18.00;99.90;;;;;;5050048;28;20268;-64
2023/03/30 12:13:54;;;;;;;5.00;4.70;;;17.90;99.90;;;;;;5033169;28;20171;-64
2023/03/30 12:16:45;;;;;;;5.83;4.30;;;17.50;99.90;;;;;;5038137;28;20187;-65
2023/03/30 12:19:17;;;;;;;5.63;5.13;;;16.80;99.90;;;;;;5052811;28;20204;-66
2023/03/30 12:21:55;;;;;;;8.80;8.30;;;15.80;99.90;;;;;;5045302;28;20181;-65
2023/03/30 12:24:42;;;;;;;5.87;4.53;;;14.90;99.90;;;;;;5033018;28;20596;-64
2023/03/30 12:27:09;;;;;;;4.77;4.50;;;14.20;99.90;;;;;;5043289;28;20209;-65
2023/03/30 12:29:48;;;;;;;5.70;5.20;;;13.80;1.00;;;;;;5052566;28;20759;-65
2023/03/30 12:32:28;;;;;;;6.50;6.10;;;13.50;99.90;;;;;;5051201;28;20171;-65
2023/03/30 12:34:55;;;;;;;6.57;5.90;;;13.30;1.00;;;;;;5051032;28;20175;-65
2023/03/30 12:37:36;;;;;;;5.93;5.60;;;13.20;1.00;;;;;;5041553;28;20175;-65
2023/03/30 12:40:08;;;;;;;5.70;5.33;;;13.20;1.00;;;;;;5032153;28;20260;-65
2023/03/30 12:42:44;;;;;;;5.93;5.43;;;13.10;42.00;;;;;;5043882;28;20175;-66
2023/03/30 12:45:10;;;;;;;5.90;5.47;;;13.20;81.70;;;;;;5052479;28;20281;-66
2023/03/30 12:47:50;;;;;;;5.37;5.03;;;13.30;99.90;;;;;;5039948;28;20275;-66
2023/03/30 12:50:19;;;;;;;6.20;5.70;;;13.30;99.90;;;;;;5014594;28;20540;-65
2023/03/30 12:53:07;;;;;;;6.70;6.10;;;13.20;1.00;;;;;;5045010;28;20624;-65
2023/03/30 12:55:40;;;;;;;6.87;6.17;;;13.10;32.50;;;;;;5052229;28;20175;-65
2023/03/30 12:58:18;;;;;;;5.60;5.30;;;13.00;1.00;;;;;;5037421;28;20526;-65
2023/03/30 13:01:08;;;;;;;5.23;4.33;;;12.90;79.70;;;;;;5046405;28;20382;-66
2023/03/30 13:03:48;;;;;;;4.70;4.50;;;12.70;1.00;;;;;;5034660;28;20183;-66
2023/03/30 13:06:32;;;;;;;5.30;4.80;;;12.30;1.00;;;;;;5047425;28;20179;-66
2023/03/30 13:09:18;;;;;;;5.00;4.80;;;12.00;99.90;;;;;;5052277;28;20171;-65
2023/03/30 13:11:52;;;;;;;6.30;5.77;;;11.90;99.90;;;;;;5051941;28;20177;-66
2023/03/30 13:14:33;;;;;;;5.33;5.03;;;12.10;99.90;;;;;;5050286;28;20174;-65